Crane Naval Depot, Indiana
Current Conditions -  °F | °C
As of 12:55 PM on Friday 21 Nov 2014 (Local Time) from KDCY Reporting Station
Clear Clear  
Wind Chill: 29°   Ceiling: Unl
Heat Index: 36°   Visibility: 10mi
Dew Point: 15°   Wind: 10mph
Humidity: 42%   Direction: 130°SE
Pressure: 30.44"   Gusts: NA
Location:  38.8381°N, 86.8142°W
Report Text: KDCY 211855Z AUTO 13009KT 10SM CLR 02/M09 A3044 RMK AO2 T00241095
Loading
Personal Weather Stations






























Interactive Weather Map New forecast layout! Learn more

10-Day Weather Forecast

Advertisements
Track Severe Weather on mobile